Time;durP1;ratioP1;P1;durP2;ratioP2;P2;SDS_P1;SDS_P2;PMS_P1;PMS_P2;Temp;Humidity;BMP_temperature;BMP_pressure;BME280_temperature;BME280_humidity;BME280_pressure;Samples;Min_cycle;Max_cycle;Signal;HPM_P1;HPM_P2
2023/10/26 00:00:38;;;;;;;16.83;13.10;;;12.60;73.70;;;;;;5058876;28;20119;-81
2023/10/26 00:03:04;;;;;;;13.38;12.07;;;12.60;73.70;;;;;;5066078;28;20134;-81
2023/10/26 00:05:29;;;;;;;13.30;11.93;;;12.60;73.80;;;;;;5058677;28;20629;-81
2023/10/26 00:17:38;;;;;;;14.88;13.50;;;12.60;73.90;;;;;;5044999;28;20371;-78
2023/10/26 00:34:19;;;;;;;15.43;13.93;;;12.60;74.20;;;;;;5042686;28;20242;-79
2023/10/26 00:36:45;;;;;;;16.38;14.68;;;12.60;74.00;;;;;;5077852;28;20032;-79
2023/10/26 00:39:12;;;;;;;19.77;15.40;;;12.60;74.10;;;;;;5047330;28;20489;-80
2023/10/26 00:41:38;;;;;;;15.60;14.07;;;12.60;74.20;;;;;;5049683;28;20033;-81
2023/10/26 00:44:04;;;;;;;16.00;14.20;;;12.60;74.20;;;;;;5059642;28;20119;-80
2023/10/26 00:46:30;;;;;;;15.23;13.60;;;12.60;74.30;;;;;;5045375;28;20494;-80
2023/10/26 00:48:57;;;;;;;14.75;13.32;;;12.60;74.40;;;;;;5046597;28;20430;-80
2023/10/26 00:51:24;;;;;;;15.98;14.35;;;12.60;74.40;;;;;;5054374;28;20040;-80
2023/10/26 00:53:50;;;;;;;17.38;15.50;;;12.70;74.70;;;;;;5059514;28;20413;-80
2023/10/26 00:56:20;;;;;;;16.40;14.25;;;12.60;74.50;;;;;;5056046;28;20025;-80
2023/10/26 00:58:47;;;;;;;16.48;14.85;;;12.60;74.60;;;;;;5040999;28;20025;-80
2023/10/26 01:01:14;;;;;;;19.45;15.10;;;12.60;74.60;;;;;;5041062;28;20483;-82
2023/10/26 01:03:41;;;;;;;14.43;13.00;;;12.60;74.60;;;;;;5058601;28;20508;-81
2023/10/26 01:06:08;;;;;;;15.73;14.18;;;12.70;74.80;;;;;;5057375;28;20032;-82
2023/10/26 01:08:35;;;;;;;16.30;14.32;;;12.70;74.90;;;;;;5052518;28;20024;-82
2023/10/26 01:11:02;;;;;;;17.38;15.60;;;12.70;74.90;;;;;;5054206;28;20040;-81
2023/10/26 01:13:30;;;;;;;15.82;14.25;;;12.60;74.70;;;;;;5073418;28;20028;-81
2023/10/26 01:15:56;;;;;;;16.50;14.80;;;12.70;74.90;;;;;;5057678;28;20368;-81
2023/10/26 01:18:22;;;;;;;16.30;14.70;;;12.70;75.00;;;;;;5057798;28;20330;-81
2023/10/26 01:20:49;;;;;;;18.15;14.98;;;12.60;74.90;;;;;;5070160;28;20040;-82
2023/10/26 01:23:14;;;;;;;16.05;14.45;;;12.70;75.10;;;;;;5064694;28;20068;-81
2023/10/26 01:25:40;;;;;;;16.00;14.40;;;12.70;75.10;;;;;;5064555;28;20048;-80
2023/10/26 01:28:10;;;;;;;15.98;14.38;;;12.60;75.00;;;;;;5059860;28;20087;-80
2023/10/26 01:30:40;;;;;;;15.02;13.63;;;12.70;75.20;;;;;;5063504;28;20094;-80
2023/10/26 01:33:06;;;;;;;15.30;13.80;;;12.60;75.10;;;;;;5046354;28;20043;-81
2023/10/26 01:35:42;;;;;;;15.30;13.73;;;12.60;75.10;;;;;;5042781;28;20475;-81
2023/10/26 01:38:09;;;;;;;12.98;11.10;;;12.70;75.40;;;;;;5061357;28;20059;-81
2023/10/26 01:40:36;;;;;;;14.13;12.73;;;12.70;75.30;;;;;;5037423;28;20392;-81
2023/10/26 01:43:02;;;;;;;13.20;11.80;;;12.70;75.40;;;;;;5068830;28;20035;-80
2023/10/26 01:45:28;;;;;;;14.73;13.23;;;12.70;75.40;;;;;;5065348;28;20032;-80
2023/10/26 01:47:54;;;;;;;13.65;12.30;;;12.70;75.40;;;;;;5060965;28;20047;-81
2023/10/26 01:50:20;;;;;;;14.32;12.30;;;12.70;75.40;;;;;;5062085;28;20458;-81
2023/10/26 01:52:49;;;;;;;13.55;11.75;;;12.70;75.40;;;;;;5063160;28;20251;-82
2023/10/26 01:55:15;;;;;;;13.35;12.05;;;12.70;75.50;;;;;;5061655;28;20043;-81
2023/10/26 01:57:41;;;;;;;13.25;11.93;;;12.80;75.60;;;;;;5044062;28;20119;-82
2023/10/26 02:00:08;;;;;;;12.35;11.05;;;12.70;75.40;;;;;;5093531;28;20028;-82
2023/10/26 02:02:38;;;;;;;13.02;11.73;;;12.70;75.50;;;;;;5062853;28;20373;-81
2023/10/26 02:05:04;;;;;;;13.57;11.77;;;12.70;75.50;;;;;;5061839;28;20041;-80
2023/10/26 02:07:30;;;;;;;13.15;11.85;;;12.70;75.50;;;;;;5061841;28;20120;-81
2023/10/26 02:09:58;;;;;;;13.02;11.73;;;12.80;75.70;;;;;;5062016;28;20035;-79
2023/10/26 02:12:25;;;;;;;12.43;11.13;;;12.70;75.60;;;;;;5060691;28;20029;-80
2023/10/26 02:14:51;;;;;;;13.45;11.50;;;12.70;75.70;;;;;;5062268;28;20032;-79
2023/10/26 02:17:17;;;;;;;12.52;11.27;;;12.70;75.70;;;;;;5043294;28;20804;-80
2023/10/26 02:19:44;;;;;;;13.00;11.70;;;12.70;75.80;;;;;;5056142;28;20052;-79
2023/10/26 02:22:09;;;;;;;12.20;11.00;;;12.70;75.80;;;;;;5062800;28;20128;-82
2023/10/26 02:24:35;;;;;;;11.85;10.70;;;12.70;75.80;;;;;;5059649;28;20175;-79
2023/10/26 02:27:01;;;;;;;12.75;11.55;;;12.70;75.80;;;;;;5042818;28;20028;-81
2023/10/26 02:29:28;;;;;;;13.23;10.85;;;12.70;75.90;;;;;;5061425;28;20024;-81
2023/10/26 02:31:54;;;;;;;12.85;11.63;;;12.70;75.90;;;;;;5061293;28;20031;-81
2023/10/26 02:34:20;;;;;;;13.23;11.57;;;12.70;75.90;;;;;;5059267;28;20051;-80
2023/10/26 02:36:47;;;;;;;12.93;11.73;;;12.70;75.90;;;;;;5061427;28;20047;-80
2023/10/26 02:39:13;;;;;;;13.75;12.35;;;12.70;75.90;;;;;;5060968;28;20072;-81
2023/10/26 02:41:40;;;;;;;12.75;11.55;;;12.70;75.90;;;;;;5050669;28;20064;-81
2023/10/26 02:44:05;;;;;;;12.77;11.52;;;12.70;75.90;;;;;;5062392;28;20552;-80
2023/10/26 02:46:31;;;;;;;14.27;12.88;;;12.70;76.00;;;;;;5060541;28;20270;-81
2023/10/26 02:49:00;;;;;;;14.25;12.85;;;12.80;76.10;;;;;;5062526;28;20027;-79
2023/10/26 02:51:26;;;;;;;13.90;12.60;;;12.80;76.20;;;;;;5059984;28;20432;-79
2023/10/26 02:53:52;;;;;;;13.50;12.13;;;12.80;76.20;;;;;;5042839;28;20037;-80
2023/10/26 02:56:19;;;;;;;14.38;12.95;;;12.80;76.20;;;;;;5059344;28;20023;-80
2023/10/26 02:58:45;;;;;;;13.43;12.05;;;12.80;76.20;;;;;;5058465;28;20016;-80
2023/10/26 03:01:11;;;;;;;14.57;13.18;;;12.80;76.30;;;;;;5062858;28;20039;-80
2023/10/26 03:03:37;;;;;;;13.30;12.00;;;12.80;76.30;;;;;;5062227;28;20024;-80
2023/10/26 03:06:03;;;;;;;14.50;12.65;;;12.80;76.30;;;;;;5060158;28;20039;-80
2023/10/26 03:08:29;;;;;;;15.50;13.90;;;12.80;76.40;;;;;;5061006;28;20491;-81
2023/10/26 03:10:55;;;;;;;13.73;12.20;;;12.80;76.40;;;;;;5056008;28;20029;-82
2023/10/26 03:13:21;;;;;;;13.95;12.48;;;12.80;76.40;;;;;;5078263;28;20044;-82
2023/10/26 03:15:47;;;;;;;14.63;13.13;;;12.80;76.70;;;;;;5044400;28;20043;-79
2023/10/26 03:18:14;;;;;;;13.52;12.18;;;12.80;76.40;;;;;;5060960;28;20158;-80
2023/10/26 03:20:40;;;;;;;14.05;12.65;;;12.80;76.50;;;;;;5059992;28;20365;-82
2023/10/26 03:23:06;;;;;;;13.80;12.35;;;12.80;76.50;;;;;;5044204;28;20046;-82
2023/10/26 03:25:32;;;;;;;14.63;12.10;;;12.80;76.60;;;;;;5041004;28;20044;-82
2023/10/26 03:27:59;;;;;;;13.45;12.15;;;12.80;76.60;;;;;;5057464;28;20028;-83
2023/10/26 03:30:25;;;;;;;15.32;12.43;;;12.80;76.60;;;;;;5058910;28;20401;-83
2023/10/26 03:32:51;;;;;;;12.73;11.48;;;12.80;76.60;;;;;;5061630;28;20020;-83
2023/10/26 03:35:17;;;;;;;12.32;11.05;;;12.80;76.60;;;;;;5042994;28;20742;-83
2023/10/26 03:37:43;;;;;;;11.73;10.52;;;12.90;76.80;;;;;;5060293;28;20035;-81
2023/10/26 03:40:10;;;;;;;12.98;11.48;;;12.80;76.70;;;;;;5055799;28;20524;-82
2023/10/26 03:42:36;;;;;;;12.50;10.45;;;12.80;76.70;;;;;;5059551;28;20024;-83
2023/10/26 03:45:03;;;;;;;11.45;10.30;;;12.80;76.70;;;;;;5049036;28;20032;-82
2023/10/26 03:47:29;;;;;;;10.77;9.73;;;12.80;76.80;;;;;;5075923;28;20051;-82
2023/10/26 03:49:54;;;;;;;11.48;10.38;;;12.90;76.90;;;;;;5044101;28;20033;-79
2023/10/26 03:52:21;;;;;;;10.20;9.20;;;12.80;76.80;;;;;;5060533;28;20573;-79
2023/10/26 03:54:50;;;;;;;9.40;8.50;;;12.80;76.80;;;;;;5076914;28;20020;-78
2023/10/26 03:57:16;;;;;;;10.45;9.43;;;12.90;77.00;;;;;;5059145;28;20166;-78
2023/10/26 03:59:42;;;;;;;9.65;8.70;;;12.90;77.00;;;;;;5060518;28;20098;-79
2023/10/26 04:02:08;;;;;;;8.75;7.85;;;12.90;77.00;;;;;;5044229;28;20035;-80
2023/10/26 04:04:34;;;;;;;8.77;7.97;;;12.90;77.00;;;;;;5044465;28;20035;-80
2023/10/26 04:07:00;;;;;;;7.93;7.13;;;12.90;77.00;;;;;;5061458;28;20032;-80
2023/10/26 04:09:27;;;;;;;8.57;7.78;;;12.90;77.00;;;;;;5060867;28;20161;-80
2023/10/26 04:11:53;;;;;;;6.90;6.22;;;12.90;76.90;;;;;;5058502;28;20081;-78
2023/10/26 04:14:19;;;;;;;7.45;6.75;;;12.90;76.90;;;;;;5062237;28;20021;-79
2023/10/26 04:16:47;;;;;;;7.68;7.07;;;12.90;76.90;;;;;;5062045;28;20411;-79
2023/10/26 04:19:14;;;;;;;7.13;6.43;;;12.90;76.90;;;;;;5058173;28;20033;-79
2023/10/26 04:21:40;;;;;;;7.43;6.68;;;12.90;76.90;;;;;;5043238;28;20530;-79
2023/10/26 04:24:06;;;;;;;6.80;6.13;;;12.90;77.00;;;;;;5062198;28;20594;-80
2023/10/26 04:26:32;;;;;;;6.95;5.53;;;12.90;77.00;;;;;;5050932;28;20036;-80
2023/10/26 04:28:59;;;;;;;5.72;5.18;;;12.90;77.10;;;;;;5060225;28;20384;-80
2023/10/26 04:31:25;;;;;;;6.43;5.72;;;12.90;77.10;;;;;;5068009;28;20056;-80
2023/10/26 04:33:51;;;;;;;5.60;5.00;;;12.90;77.10;;;;;;5060976;28;20048;-79
2023/10/26 04:36:21;;;;;;;6.40;5.80;;;12.90;77.10;;;;;;5057656;28;20028;-81
2023/10/26 04:38:48;;;;;;;6.03;4.82;;;12.90;77.10;;;;;;5051183;28;20044;-82
2023/10/26 04:41:15;;;;;;;5.43;4.93;;;12.90;77.10;;;;;;5050909;28;20515;-80
2023/10/26 04:43:41;;;;;;;6.07;5.43;;;12.90;77.10;;;;;;5060577;28;20190;-80
2023/10/26 04:46:06;;;;;;;4.82;3.90;;;12.90;77.20;;;;;;5057054;28;20178;-78
2023/10/26 04:48:33;;;;;;;5.00;4.53;;;12.90;77.30;;;;;;5065748;28;20467;-78
2023/10/26 04:50:59;;;;;;;4.07;3.70;;;12.90;77.30;;;;;;5059078;28;20035;-79
2023/10/26 04:53:25;;;;;;;3.75;3.45;;;12.90;77.30;;;;;;5041217;28;20036;-80
2023/10/26 04:55:50;;;;;;;5.70;3.80;;;12.90;77.30;;;;;;5041962;28;20653;-79
2023/10/26 04:58:16;;;;;;;5.20;3.53;;;12.90;77.30;;;;;;5061427;28;20123;-79
2023/10/26 05:00:42;;;;;;;5.00;3.00;;;12.90;77.30;;;;;;5062749;28;20514;-79
2023/10/26 05:03:08;;;;;;;4.22;2.83;;;12.90;77.30;;;;;;5064297;28;20437;-82
2023/10/26 05:05:34;;;;;;;3.65;2.70;;;12.90;77.30;;;;;;5063465;28;20032;-82
2023/10/26 05:08:00;;;;;;;3.92;2.40;;;12.90;77.40;;;;;;5064206;28;20270;-82
2023/10/26 05:10:27;;;;;;;3.40;2.63;;;12.90;77.40;;;;;;5058057;28;20055;-79
2023/10/26 05:12:54;;;;;;;4.65;3.05;;;12.90;77.40;;;;;;5061414;28;20447;-82
2023/10/26 05:15:20;;;;;;;3.42;1.88;;;12.90;77.40;;;;;;5061411;28;20036;-82
2023/10/26 05:17:46;;;;;;;7.68;2.28;;;12.90;77.40;;;;;;5048577;28;20173;-81
2023/10/26 05:20:12;;;;;;;4.18;1.77;;;12.90;77.40;;;;;;5064752;28;20719;-80
2023/10/26 05:22:39;;;;;;;5.00;2.15;;;12.90;77.50;;;;;;5061445;28;20494;-80
2023/10/26 05:25:06;;;;;;;3.25;1.50;;;12.90;77.50;;;;;;5039438;28;20043;-79
2023/10/26 05:27:32;;;;;;;7.65;1.63;;;12.90;77.50;;;;;;5055782;28;20637;-80
2023/10/26 05:29:59;;;;;;;5.10;1.92;;;12.90;77.50;;;;;;5067159;28;20582;-84
2023/10/26 05:32:25;;;;;;;7.22;1.85;;;12.90;77.60;;;;;;5057330;28;20131;-84
2023/10/26 05:34:52;;;;;;;4.82;2.10;;;12.90;77.60;;;;;;5059888;28;20046;-81
2023/10/26 05:37:18;;;;;;;7.82;1.60;;;12.90;77.60;;;;;;5059264;28;20037;-82
2023/10/26 05:39:44;;;;;;;3.40;1.65;;;12.90;77.60;;;;;;5060512;28;20044;-81
2023/10/26 05:42:10;;;;;;;5.40;2.78;;;12.90;77.60;;;;;;5047798;28;20150;-82
2023/10/26 05:44:36;;;;;;;6.20;1.70;;;12.90;77.70;;;;;;5064936;28;20045;-80
2023/10/26 05:47:02;;;;;;;6.22;2.10;;;12.80;77.50;;;;;;5037044;28;20029;-82
2023/10/26 05:49:28;;;;;;;4.25;1.77;;;12.80;77.60;;;;;;5061531;28;20029;-84
2023/10/26 05:51:57;;;;;;;7.18;1.92;;;12.90;77.80;;;;;;5059428;28;20047;-84
2023/10/26 05:54:23;;;;;;;3.38;1.70;;;12.80;77.70;;;;;;5058893;28;20031;-82
2023/10/26 05:56:48;;;;;;;12.27;2.70;;;12.80;77.80;;;;;;5058027;28;20100;-79
2023/10/26 05:59:14;;;;;;;10.73;2.42;;;12.90;78.00;;;;;;5072042;28;20023;-83
2023/10/26 06:01:40;;;;;;;41.78;9.18;;;12.80;77.90;;;;;;5058834;28;20045;-84
2023/10/26 06:04:06;;;;;;;15.88;4.00;;;12.80;78.00;;;;;;5059849;28;20494;-83
2023/10/26 06:06:32;;;;;;;11.82;3.60;;;12.80;78.10;;;;;;5058575;28;20114;-84
2023/10/26 06:08:59;;;;;;;16.55;2.72;;;12.90;78.30;;;;;;5041970;28;20027;-83
2023/10/26 06:11:25;;;;;;;12.48;2.75;;;12.80;78.20;;;;;;5058413;28;20618;-84
2023/10/26 06:13:51;;;;;;;11.13;2.83;;;12.80;78.30;;;;;;5059954;28;20078;-84
2023/10/26 06:16:18;;;;;;;10.80;2.17;;;12.80;78.40;;;;;;5058124;28;20107;-82
2023/10/26 06:18:44;;;;;;;11.85;3.13;;;12.80;78.40;;;;;;5058248;28;20032;-81
2023/10/26 06:21:09;;;;;;;7.28;2.13;;;12.80;78.60;;;;;;5040282;28;20075;-81
2023/10/26 06:23:35;;;;;;;6.03;2.00;;;12.90;78.90;;;;;;5057627;28;20032;-81
2023/10/26 06:26:03;;;;;;;6.00;1.63;;;12.80;78.80;;;;;;5055854;28;20335;-81
2023/10/26 06:28:29;;;;;;;7.35;1.85;;;12.80;78.90;;;;;;5053914;28;20101;-81
2023/10/26 06:30:56;;;;;;;6.22;1.83;;;12.80;78.90;;;;;;5059082;28;20032;-82
2023/10/26 06:33:23;;;;;;;8.32;2.90;;;12.90;79.10;;;;;;5058108;28;20024;-81
2023/10/26 06:35:49;;;;;;;7.53;2.47;;;12.80;78.90;;;;;;5055629;28;20037;-82
2023/10/26 06:38:15;;;;;;;4.95;1.52;;;12.80;78.90;;;;;;5059720;28;20476;-83
2023/10/26 06:40:44;;;;;;;7.63;1.85;;;12.80;78.90;;;;;;5053705;28;20302;-83
2023/10/26 06:43:10;;;;;;;9.35;1.83;;;12.80;79.00;;;;;;5055954;28;20480;-83
2023/10/26 06:45:36;;;;;;;5.78;1.40;;;12.80;78.90;;;;;;5057779;28;20101;-83
2023/10/26 06:48:02;;;;;;;3.80;1.40;;;12.80;79.00;;;;;;5052480;28;20024;-83
2023/10/26 06:50:28;;;;;;;5.60;1.85;;;12.80;79.00;;;;;;5058400;28;20785;-83
2023/10/26 06:52:55;;;;;;;4.28;1.60;;;12.80;79.00;;;;;;5040815;28;20234;-82
2023/10/26 06:55:20;;;;;;;6.82;1.55;;;12.80;79.00;;;;;;5040390;28;20414;-82
2023/10/26 06:57:46;;;;;;;10.02;2.35;;;12.80;79.00;;;;;;5038134;28;20541;-83
2023/10/26 07:00:13;;;;;;;9.73;2.17;;;12.80;79.10;;;;;;5057820;28;20101;-82
2023/10/26 07:02:39;;;;;;;9.20;2.35;;;12.70;78.90;;;;;;5053089;28;20078;-83
2023/10/26 07:05:05;;;;;;;6.45;1.92;;;12.80;79.10;;;;;;5056646;28;20042;-81
2023/10/26 07:07:36;;;;;;;9.95;2.42;;;12.80;79.10;;;;;;5054605;28;20098;-82
2023/10/26 07:10:03;;;;;;;8.55;2.22;;;12.80;79.10;;;;;;5057392;28;20044;-82
2023/10/26 07:12:30;;;;;;;14.75;2.25;;;12.80;79.00;;;;;;5056081;28;20059;-82
2023/10/26 07:14:57;;;;;;;12.05;2.30;;;12.80;79.00;;;;;;5052881;28;20090;-82
2023/10/26 07:17:26;;;;;;;10.77;2.63;;;12.80;79.00;;;;;;5054853;28;20028;-82
2023/10/26 07:19:52;;;;;;;7.13;1.80;;;12.80;79.10;;;;;;5055341;28;20515;-83
2023/10/26 07:22:18;;;;;;;14.38;2.75;;;12.80;79.10;;;;;;5038917;28;20044;-82
2023/10/26 07:24:44;;;;;;;8.82;2.50;;;12.80;79.00;;;;;;5059051;28;20035;-82
2023/10/26 07:27:09;;;;;;;12.82;3.13;;;12.80;79.00;;;;;;5054539;28;20032;-82
2023/10/26 07:29:35;;;;;;;9.70;2.20;;;12.90;79.20;;;;;;5056619;28;20032;-84
2023/10/26 07:32:02;;;;;;;14.35;3.08;;;12.90;79.20;;;;;;5059836;28;20028;-83
2023/10/26 07:34:28;;;;;;;8.77;2.58;;;12.90;79.20;;;;;;5052300;28;20033;-83
2023/10/26 07:36:54;;;;;;;15.65;2.72;;;12.90;79.10;;;;;;5075179;28;20526;-85
2023/10/26 07:39:21;;;;;;;8.95;2.60;;;13.00;79.30;;;;;;5057282;28;20325;-85
2023/10/26 07:41:47;;;;;;;12.40;2.42;;;12.90;79.10;;;;;;5047212;28;20036;-86
2023/10/26 07:44:13;;;;;;;13.80;2.75;;;13.00;79.20;;;;;;5059316;28;20074;-84
2023/10/26 07:46:39;;;;;;;16.58;3.33;;;13.00;79.20;;;;;;5040840;28;20029;-84
2023/10/26 07:49:06;;;;;;;11.40;4.40;;;13.00;79.20;;;;;;5057725;28;20201;-83
2023/10/26 07:51:35;;;;;;;11.93;3.05;;;13.00;79.20;;;;;;5040105;28;20155;-82
2023/10/26 07:54:01;;;;;;;15.88;3.42;;;13.10;79.30;;;;;;5052890;28;20029;-82
2023/10/26 07:56:27;;;;;;;12.80;2.95;;;13.10;79.20;;;;;;5053320;28;20491;-82
2023/10/26 07:58:54;;;;;;;9.00;2.58;;;13.20;79.40;;;;;;5070116;28;20441;-82
2023/10/26 08:01:20;;;;;;;11.20;2.92;;;13.20;79.30;;;;;;5039494;28;20496;-81
2023/10/26 08:03:46;;;;;;;11.25;2.58;;;13.30;79.40;;;;;;5056115;28;20058;-83
2023/10/26 08:06:12;;;;;;;11.82;2.85;;;13.30;79.30;;;;;;5053973;28;20047;-81
2023/10/26 08:08:38;;;;;;;14.95;2.95;;;13.40;79.40;;;;;;5056334;28;20528;-81
2023/10/26 08:11:13;;;;;;;13.20;3.47;;;13.40;79.30;;;;;;5053277;28;20067;-81
2023/10/26 08:13:40;;;;;;;11.27;2.40;;;13.40;79.30;;;;;;5053806;28;20107;-81
2023/10/26 08:16:07;;;;;;;11.18;3.65;;;13.50;79.40;;;;;;5056637;28;20033;-82
2023/10/26 08:18:33;;;;;;;16.15;3.03;;;13.50;79.40;;;;;;5054871;28;20040;-82
2023/10/26 08:21:03;;;;;;;11.07;3.05;;;13.60;79.50;;;;;;5056350;28;20496;-81
2023/10/26 08:23:31;;;;;;;13.15;2.92;;;13.70;79.50;;;;;;5051199;28;20020;-81
2023/10/26 08:26:04;;;;;;;12.57;3.17;;;13.70;79.40;;;;;;5053861;28;20032;-83
2023/10/26 08:28:30;;;;;;;14.55;3.15;;;13.80;79.40;;;;;;5070664;28;20302;-80
2023/10/26 08:30:56;;;;;;;17.23;3.85;;;13.80;79.20;;;;;;5043016;28;20036;-80
2023/10/26 08:33:30;;;;;;;11.05;2.70;;;13.80;79.10;;;;;;5053034;28;20132;-80
2023/10/26 08:35:57;;;;;;;11.70;2.72;;;13.90;79.20;;;;;;5054072;28;20028;-81
2023/10/26 08:38:25;;;;;;;13.00;3.03;;;13.80;78.90;;;;;;5055190;28;20161;-80
2023/10/26 08:40:52;;;;;;;15.35;2.60;;;13.90;79.10;;;;;;5047145;28;20190;-80
2023/10/26 08:43:20;;;;;;;11.15;2.13;;;13.90;79.00;;;;;;5056745;28;20091;-80
2023/10/26 08:45:51;;;;;;;9.43;2.25;;;13.90;79.00;;;;;;5056019;28;20478;-81
2023/10/26 08:48:18;;;;;;;11.40;3.00;;;13.90;78.90;;;;;;5056271;28;20061;-81
2023/10/26 08:50:47;;;;;;;13.93;2.70;;;13.90;78.90;;;;;;5052285;28;20067;-80
2023/10/26 08:53:15;;;;;;;11.52;2.78;;;13.90;78.90;;;;;;5037398;28;20032;-83
2023/10/26 08:55:43;;;;;;;11.13;3.10;;;13.90;78.90;;;;;;5059432;28;20029;-86
2023/10/26 08:58:09;;;;;;;11.02;2.97;;;13.90;78.90;;;;;;5056215;28;20060;-85
2023/10/26 09:00:38;;;;;;;12.93;2.22;;;13.90;78.90;;;;;;5053735;28;20537;-84
2023/10/26 09:03:04;;;;;;;12.77;2.55;;;13.90;78.90;;;;;;5051957;28;20029;-83
2023/10/26 09:05:31;;;;;;;16.67;3.50;;;13.90;78.90;;;;;;5053872;28;20120;-82
2023/10/26 09:07:57;;;;;;;10.20;2.83;;;13.90;78.90;;;;;;5053728;28;20025;-81
2023/10/26 09:10:32;;;;;;;15.30;2.90;;;14.00;79.10;;;;;;5052653;28;20515;-84
2023/10/26 09:13:06;;;;;;;16.25;2.88;;;13.90;78.80;;;;;;5054860;28;20071;-83
2023/10/26 09:15:45;;;;;;;;;;;14.00;79.00;;;;;;5058003;28;20033;-84
2023/10/26 09:18:11;;;;;;;14.45;3.20;;;14.00;78.80;;;;;;5049307;28;19969;-83
2023/10/26 09:20:38;;;;;;;11.48;3.10;;;14.00;78.70;;;;;;5054506;28;20037;-84
2023/10/26 09:23:08;;;;;;;12.07;2.92;;;14.10;78.90;;;;;;5055433;28;20410;-83
2023/10/26 09:25:34;;;;;;;16.27;3.97;;;14.10;78.80;;;;;;5053859;28;20251;-81
2023/10/26 09:28:02;;;;;;;14.80;2.65;;;14.10;78.80;;;;;;5051832;28;20585;-83
2023/10/26 09:30:30;;;;;;;18.83;2.97;;;14.10;78.80;;;;;;5053745;28;20783;-82
2023/10/26 09:32:56;;;;;;;13.35;3.15;;;14.10;78.80;;;;;;5041155;28;20545;-84
2023/10/26 09:35:30;;;;;;;16.52;4.32;;;14.10;78.80;;;;;;5051626;28;20032;-86
2023/10/26 09:37:57;;;;;;;11.23;3.00;;;14.10;79.30;;;;;;5054623;28;20157;-84
2023/10/26 09:40:25;;;;;;;11.63;3.00;;;14.10;78.70;;;;;;5049816;28;20107;-83
2023/10/26 09:42:51;;;;;;;8.40;1.85;;;14.20;78.80;;;;;;5057558;28;20351;-84
2023/10/26 09:45:19;;;;;;;13.85;2.92;;;14.20;78.90;;;;;;5061062;28;20803;-83
2023/10/26 09:47:46;;;;;;;7.85;2.25;;;14.20;79.00;;;;;;5057158;28;20103;-83
2023/10/26 09:50:16;;;;;;;9.02;2.80;;;14.20;79.00;;;;;;5063688;28;20273;-85
2023/10/26 09:52:43;;;;;;;11.70;3.65;;;14.30;79.20;;;;;;5057354;28;20121;-84
2023/10/26 09:55:11;;;;;;;10.88;2.55;;;14.30;79.70;;;;;;5058369;28;20021;-84
2023/10/26 09:57:58;;;;;;;12.07;3.22;;;14.30;79.10;;;;;;5054439;28;20106;-84
2023/10/26 10:00:32;;;;;;;14.48;4.30;;;14.40;79.20;;;;;;5073482;28;20037;-83
2023/10/26 10:03:17;;;;;;;19.05;4.03;;;14.40;79.20;;;;;;5058856;28;20116;-82
2023/10/26 10:05:47;;;;;;;13.13;2.75;;;14.40;79.20;;;;;;5040763;28;20431;-85
2023/10/26 10:08:13;;;;;;;11.13;3.75;;;14.40;79.50;;;;;;5058522;28;20503;-83
2023/10/26 10:11:15;;;;;;;16.92;4.68;;;14.40;79.10;;;;;;5055295;28;20043;-84
2023/10/26 10:13:42;;;;;;;17.00;4.72;;;14.50;79.20;;;;;;5060511;28;20054;-84
2023/10/26 10:16:45;;;;;;;13.23;3.17;;;14.50;79.10;;;;;;5059374;28;20048;-88
2023/10/26 10:19:22;;;;;;;21.67;5.72;;;14.50;79.10;;;;;;5020034;28;20627;-86
2023/10/26 10:21:51;;;;;;;13.10;3.72;;;14.50;79.00;;;;;;5054449;28;20032;-85
2023/10/26 10:24:44;;;;;;;18.00;5.18;;;14.50;78.90;;;;;;5031311;28;20047;-85
2023/10/26 10:27:15;;;;;;;13.05;3.40;;;14.50;78.90;;;;;;5066714;28;20395;-85
2023/10/26 10:29:42;;;;;;;16.05;3.95;;;14.50;78.80;;;;;;5089707;27;20540;-86
2023/10/26 10:32:32;;;;;;;12.38;3.65;;;14.60;78.90;;;;;;5041591;28;20039;-84
2023/10/26 10:35:04;;;;;;;14.02;3.25;;;14.60;78.90;;;;;;5043736;28;20055;-85
2023/10/26 10:37:30;;;;;;;;;;;14.60;78.90;;;;;;5042405;28;20031;-85
2023/10/26 10:40:16;;;;;;;13.32;4.30;;;14.60;78.80;;;;;;5057950;28;20387;-83
2023/10/26 10:42:48;;;;;;;19.88;4.35;;;14.60;78.70;;;;;;5040007;28;20032;-82
2023/10/26 10:45:15;;;;;;;13.95;3.38;;;14.60;78.70;;;;;;5076154;28;20032;-83
2023/10/26 10:47:42;;;;;;;12.85;3.90;;;14.70;78.80;;;;;;5058936;28;20039;-84
2023/10/26 10:50:22;;;;;;;18.15;4.10;;;14.70;78.80;;;;;;5062748;28;20094;-84
2023/10/26 10:52:50;;;;;;;16.33;3.95;;;14.70;78.80;;;;;;5061571;28;20586;-84
2023/10/26 10:55:26;;;;;;;13.73;3.72;;;14.70;78.80;;;;;;5056110;28;20039;-83
2023/10/26 10:57:57;;;;;;;12.25;4.15;;;14.70;78.80;;;;;;5053204;28;20093;-84
2023/10/26 11:00:25;;;;;;;10.82;2.88;;;14.80;78.90;;;;;;5073047;28;20491;-82
2023/10/26 11:02:58;;;;;;;11.15;2.58;;;14.80;78.80;;;;;;5052710;28;20687;-82
2023/10/26 11:05:40;;;;;;;10.18;3.40;;;14.80;78.80;;;;;;5057063;28;20040;-83
2023/10/26 11:08:07;;;;;;;17.80;4.45;;;14.90;78.90;;;;;;5054706;28;20099;-83
2023/10/26 11:10:34;;;;;;;10.10;3.20;;;14.90;78.80;;;;;;5039704;28;20044;-84
2023/10/26 11:13:02;;;;;;;16.00;4.22;;;15.00;78.90;;;;;;5059666;28;20032;-83
2023/10/26 11:15:38;;;;;;;14.57;3.33;;;15.00;78.80;;;;;;5056328;28;20412;-83
2023/10/26 11:18:07;;;;;;;11.32;3.78;;;15.10;78.90;;;;;;5057115;28;20021;-83
2023/10/26 11:20:38;;;;;;;10.90;3.53;;;15.10;78.80;;;;;;5061354;28;20024;-83
2023/10/26 11:23:06;;;;;;;13.20;3.20;;;15.20;78.90;;;;;;5075554;28;20028;-84
2023/10/26 11:25:32;;;;;;;9.88;3.90;;;15.20;78.80;;;;;;5055437;28;20068;-83
2023/10/26 11:27:58;;;;;;;11.25;2.97;;;15.20;79.20;;;;;;5054988;28;20165;-83
2023/10/26 11:30:25;;;;;;;17.70;4.97;;;15.20;78.80;;;;;;5059318;28;20047;-83
2023/10/26 11:32:51;;;;;;;13.85;3.50;;;15.30;78.70;;;;;;5055763;28;20021;-84
2023/10/26 11:35:20;;;;;;;11.07;2.60;;;15.30;78.60;;;;;;5058031;28;20056;-81
2023/10/26 11:37:49;;;;;;;8.27;3.10;;;15.40;78.60;;;;;;5055658;28;20119;-84
2023/10/26 11:40:16;;;;;;;10.07;2.60;;;15.40;78.60;;;;;;5058003;28;20131;-83
2023/10/26 11:42:45;;;;;;;15.05;3.60;;;15.40;78.40;;;;;;5055785;28;20048;-85
2023/10/26 11:45:11;;;;;;;14.05;2.35;;;15.50;78.50;;;;;;5045696;28;20045;-83
2023/10/26 11:47:57;;;;;;;13.02;3.10;;;15.50;78.30;;;;;;5054203;28;20093;-83
2023/10/26 11:50:24;;;;;;;12.07;2.55;;;15.60;78.90;;;;;;5057423;28;20106;-84
2023/10/26 11:52:54;;;;;;;9.45;2.58;;;15.60;78.30;;;;;;5055729;28;20082;-81
2023/10/26 11:55:21;;;;;;;8.02;2.30;;;15.60;78.20;;;;;;5055118;28;20140;-81
2023/10/26 11:57:48;;;;;;;10.32;3.22;;;15.70;78.30;;;;;;5054123;28;20301;-82
2023/10/26 12:00:15;;;;;;;15.15;3.63;;;15.70;78.20;;;;;;5070571;28;20028;-85
2023/10/26 12:02:42;;;;;;;14.73;3.22;;;15.70;78.20;;;;;;5039034;28;20017;-83
2023/10/26 12:05:15;;;;;;;15.60;2.33;;;15.70;78.10;;;;;;5054586;28;20036;-84
2023/10/26 12:07:43;;;;;;;10.98;2.42;;;15.70;78.00;;;;;;5036979;28;20097;-83
2023/10/26 12:10:09;;;;;;;10.45;2.72;;;15.70;77.90;;;;;;5034838;28;20415;-83
2023/10/26 12:12:35;;;;;;;9.20;2.22;;;15.70;78.40;;;;;;5054796;28;20793;-83
2023/10/26 12:15:02;;;;;;;12.43;2.50;;;15.70;77.80;;;;;;5039502;28;20036;-82
2023/10/26 12:17:29;;;;;;;12.70;4.15;;;15.70;77.80;;;;;;5055164;28;20412;-84
2023/10/26 12:19:55;;;;;;;10.10;2.85;;;15.70;77.80;;;;;;5057773;28;20058;-83
2023/10/26 12:22:21;;;;;;;8.00;2.83;;;15.70;77.80;;;;;;5037476;28;20135;-83
2023/10/26 12:24:51;;;;;;;8.93;2.28;;;15.70;77.70;;;;;;5052519;28;20344;-83
2023/10/26 12:27:18;;;;;;;24.40;4.00;;;15.80;77.90;;;;;;5053992;28;20558;-83
2023/10/26 12:29:44;;;;;;;14.23;2.95;;;15.80;77.80;;;;;;5059048;28;20134;-85
2023/10/26 12:32:10;;;;;;;7.43;2.65;;;15.90;77.90;;;;;;5050364;28;20036;-83
2023/10/26 12:34:40;;;;;;;11.13;3.10;;;16.00;78.00;;;;;;5054439;28;20471;-84
2023/10/26 12:37:07;;;;;;;9.60;2.13;;;16.10;78.00;;;;;;5056018;28;20047;-83
2023/10/26 12:39:33;;;;;;;10.43;2.55;;;16.20;77.80;;;;;;5072918;28;20048;-83
2023/10/26 12:41:59;;;;;;;10.95;2.25;;;16.30;77.80;;;;;;5049104;28;20033;-83
2023/10/26 12:44:27;;;;;;;7.47;2.13;;;16.40;77.60;;;;;;5064178;28;20052;-84
2023/10/26 12:46:54;;;;;;;10.80;2.30;;;16.60;77.70;;;;;;5065996;28;20044;-84
2023/10/26 12:49:21;;;;;;;11.90;3.50;;;16.70;77.50;;;;;;5059135;28;20784;-83
2023/10/26 12:51:48;;;;;;;7.25;2.88;;;16.80;77.40;;;;;;5081492;28;20032;-83
2023/10/26 12:54:14;;;;;;;9.57;2.22;;;16.90;77.30;;;;;;5064066;28;20051;-83
2023/10/26 12:56:41;;;;;;;9.50;2.63;;;17.00;77.10;;;;;;5050564;28;20029;-83
2023/10/26 12:59:07;;;;;;;8.82;2.00;;;17.00;76.90;;;;;;5052945;28;20032;-83
2023/10/26 13:01:34;;;;;;;7.25;1.77;;;17.00;76.80;;;;;;5050725;28;20032;-83
2023/10/26 13:04:00;;;;;;;11.60;2.58;;;17.00;76.60;;;;;;5056189;28;20307;-83